sensor_id;sensor_type;location;lat;lon;timestamp;temperature;humidity
6260;DHT22;3163;51.516;4.000;2023-03-03T00:00:27;8.20;99.90
6260;DHT22;3163;51.516;4.000;2023-03-03T00:02:53;8.20;99.90
6260;DHT22;3163;51.516;4.000;2023-03-03T00:05:18;8.20;99.90
6260;DHT22;3163;51.516;4.000;2023-03-03T00:07:45;8.20;99.90
6260;DHT22;3163;51.516;4.000;2023-03-03T00:10:11;8.20;99.90
6260;DHT22;3163;51.516;4.000;2023-03-03T00:12:47;8.20;99.90
6260;DHT22;3163;51.516;4.000;2023-03-03T00:15:15;8.20;99.90
6260;DHT22;3163;51.516;4.000;2023-03-03T00:17:41;8.10;99.90
6260;DHT22;3163;51.516;4.000;2023-03-03T00:20:51;8.10;99.90
6260;DHT22;3163;51.516;4.000;2023-03-03T00:23:29;8.10;99.90
6260;DHT22;3163;51.516;4.000;2023-03-03T00:25:55;8.10;99.90
6260;DHT22;3163;51.516;4.000;2023-03-03T00:28:30;8.10;99.90
6260;DHT22;3163;51.516;4.000;2023-03-03T00:31:00;8.10;99.90
6260;DHT22;3163;51.516;4.000;2023-03-03T00:33:33;8.10;99.90
6260;DHT22;3163;51.516;4.000;2023-03-03T00:38:35;8.10;99.90
6260;DHT22;3163;51.516;4.000;2023-03-03T00:41:03;8.10;99.90
6260;DHT22;3163;51.516;4.000;2023-03-03T00:43:35;8.10;99.90
6260;DHT22;3163;51.516;4.000;2023-03-03T00:46:01;8.10;99.90
6260;DHT22;3163;51.516;4.000;2023-03-03T00:48:40;8.10;99.90
6260;DHT22;3163;51.516;4.000;2023-03-03T00:53:48;8.10;99.90
6260;DHT22;3163;51.516;4.000;2023-03-03T00:56:14;8.10;99.90
6260;DHT22;3163;51.516;4.000;2023-03-03T00:58:40;8.00;99.90
6260;DHT22;3163;51.516;4.000;2023-03-03T01:01:06;8.00;99.90
6260;DHT22;3163;51.516;4.000;2023-03-03T01:03:32;8.00;99.90
6260;DHT22;3163;51.516;4.000;2023-03-03T01:05:57;8.00;99.90
6260;DHT22;3163;51.516;4.000;2023-03-03T01:08:23;8.00;99.90
6260;DHT22;3163;51.516;4.000;2023-03-03T01:10:55;8.00;99.90
6260;DHT22;3163;51.516;4.000;2023-03-03T01:13:25;8.00;99.90
6260;DHT22;3163;51.516;4.000;2023-03-03T01:15:51;8.00;99.90
6260;DHT22;3163;51.516;4.000;2023-03-03T01:18:17;8.00;99.90
6260;DHT22;3163;51.516;4.000;2023-03-03T01:20:43;8.00;99.90
6260;DHT22;3163;51.516;4.000;2023-03-03T01:23:09;8.00;99.90
6260;DHT22;3163;51.516;4.000;2023-03-03T01:25:35;8.00;99.90
6260;DHT22;3163;51.516;4.000;2023-03-03T01:28:01;8.00;99.90
6260;DHT22;3163;51.516;4.000;2023-03-03T01:30:27;8.00;99.90
6260;DHT22;3163;51.516;4.000;2023-03-03T01:32:53;8.00;99.90
6260;DHT22;3163;51.516;4.000;2023-03-03T01:35:19;8.00;99.90
6260;DHT22;3163;51.516;4.000;2023-03-03T01:37:45;8.00;99.90
6260;DHT22;3163;51.516;4.000;2023-03-03T01:40:17;7.90;99.90
6260;DHT22;3163;51.516;4.000;2023-03-03T01:42:43;8.00;99.90
6260;DHT22;3163;51.516;4.000;2023-03-03T01:48:03;8.00;99.90
6260;DHT22;3163;51.516;4.000;2023-03-03T01:50:58;7.90;99.90
6260;DHT22;3163;51.516;4.000;2023-03-03T01:53:42;8.00;99.90
6260;DHT22;3163;51.516;4.000;2023-03-03T01:56:09;8.00;99.90
6260;DHT22;3163;51.516;4.000;2023-03-03T01:58:42;8.00;99.90
6260;DHT22;3163;51.516;4.000;2023-03-03T02:01:19;8.00;99.90
6260;DHT22;3163;51.516;4.000;2023-03-03T02:03:46;8.00;99.90
6260;DHT22;3163;51.516;4.000;2023-03-03T02:06:15;7.90;99.90
6260;DHT22;3163;51.516;4.000;2023-03-03T02:08:52;7.90;99.90
6260;DHT22;3163;51.516;4.000;2023-03-03T02:11:20;7.90;99.90
6260;DHT22;3163;51.516;4.000;2023-03-03T02:13:46;7.90;99.90
6260;DHT22;3163;51.516;4.000;2023-03-03T02:16:12;7.90;99.90
6260;DHT22;3163;51.516;4.000;2023-03-03T02:18:38;7.90;99.90
6260;DHT22;3163;51.516;4.000;2023-03-03T02:21:06;7.90;99.90
6260;DHT22;3163;51.516;4.000;2023-03-03T02:28:31;7.80;99.90
6260;DHT22;3163;51.516;4.000;2023-03-03T02:30:59;7.80;99.90
6260;DHT22;3163;51.516;4.000;2023-03-03T02:33:26;7.80;99.90
6260;DHT22;3163;51.516;4.000;2023-03-03T02:35:52;7.80;99.90
6260;DHT22;3163;51.516;4.000;2023-03-03T02:46:24;7.80;99.90
6260;DHT22;3163;51.516;4.000;2023-03-03T02:48:50;7.80;99.90
6260;DHT22;3163;51.516;4.000;2023-03-03T02:51:15;7.80;99.90
6260;DHT22;3163;51.516;4.000;2023-03-03T02:53:41;7.80;99.90
6260;DHT22;3163;51.516;4.000;2023-03-03T02:56:07;7.80;99.90
6260;DHT22;3163;51.516;4.000;2023-03-03T02:58:34;7.80;99.90
6260;DHT22;3163;51.516;4.000;2023-03-03T03:01:00;7.80;99.90
6260;DHT22;3163;51.516;4.000;2023-03-03T03:03:26;7.80;99.90
6260;DHT22;3163;51.516;4.000;2023-03-03T03:05:52;7.90;99.90
6260;DHT22;3163;51.516;4.000;2023-03-03T03:08:17;7.90;99.90
6260;DHT22;3163;51.516;4.000;2023-03-03T03:10:43;7.90;99.90
6260;DHT22;3163;51.516;4.000;2023-03-03T03:13:09;7.80;99.90
6260;DHT22;3163;51.516;4.000;2023-03-03T03:15:35;7.80;99.90
6260;DHT22;3163;51.516;4.000;2023-03-03T03:18:00;7.80;99.90
6260;DHT22;3163;51.516;4.000;2023-03-03T03:20:26;7.80;99.90
6260;DHT22;3163;51.516;4.000;2023-03-03T03:22:52;7.80;99.90
6260;DHT22;3163;51.516;4.000;2023-03-03T03:25:17;7.80;99.90
6260;DHT22;3163;51.516;4.000;2023-03-03T03:27:43;7.80;99.90
6260;DHT22;3163;51.516;4.000;2023-03-03T03:30:09;7.80;99.90
6260;DHT22;3163;51.516;4.000;2023-03-03T03:32:35;7.80;99.90
6260;DHT22;3163;51.516;4.000;2023-03-03T03:35:00;7.80;99.90
6260;DHT22;3163;51.516;4.000;2023-03-03T03:37:26;7.80;99.90
6260;DHT22;3163;51.516;4.000;2023-03-03T03:39:52;7.70;99.90
6260;DHT22;3163;51.516;4.000;2023-03-03T03:42:18;7.70;99.90
6260;DHT22;3163;51.516;4.000;2023-03-03T03:44:43;7.70;99.90
6260;DHT22;3163;51.516;4.000;2023-03-03T03:47:09;7.70;99.90
6260;DHT22;3163;51.516;4.000;2023-03-03T03:49:35;7.70;99.90
6260;DHT22;3163;51.516;4.000;2023-03-03T03:52:00;7.70;99.90
6260;DHT22;3163;51.516;4.000;2023-03-03T03:54:26;7.70;99.90
6260;DHT22;3163;51.516;4.000;2023-03-03T03:56:52;7.70;99.90
6260;DHT22;3163;51.516;4.000;2023-03-03T03:59:19;7.70;99.90
6260;DHT22;3163;51.516;4.000;2023-03-03T04:01:45;7.70;99.90
6260;DHT22;3163;51.516;4.000;2023-03-03T04:04:10;7.60;99.90
6260;DHT22;3163;51.516;4.000;2023-03-03T04:06:36;7.70;99.90
6260;DHT22;3163;51.516;4.000;2023-03-03T04:09:02;7.70;99.90
6260;DHT22;3163;51.516;4.000;2023-03-03T04:11:27;7.70;99.90
6260;DHT22;3163;51.516;4.000;2023-03-03T04:13:53;7.80;99.90
6260;DHT22;3163;51.516;4.000;2023-03-03T04:16:19;7.80;99.90
6260;DHT22;3163;51.516;4.000;2023-03-03T04:18:44;7.80;99.90
6260;DHT22;3163;51.516;4.000;2023-03-03T04:21:12;7.80;99.90
6260;DHT22;3163;51.516;4.000;2023-03-03T04:23:38;7.70;99.90
6260;DHT22;3163;51.516;4.000;2023-03-03T04:26:04;7.70;99.90
6260;DHT22;3163;51.516;4.000;2023-03-03T04:28:30;7.70;99.90
6260;DHT22;3163;51.516;4.000;2023-03-03T04:30:55;7.70;99.90
6260;DHT22;3163;51.516;4.000;2023-03-03T04:33:21;7.70;99.90
6260;DHT22;3163;51.516;4.000;2023-03-03T04:35:46;7.70;99.90
6260;DHT22;3163;51.516;4.000;2023-03-03T04:38:12;7.70;99.90
6260;DHT22;3163;51.516;4.000;2023-03-03T04:40:40;7.70;99.90
6260;DHT22;3163;51.516;4.000;2023-03-03T04:43:06;7.70;99.90
6260;DHT22;3163;51.516;4.000;2023-03-03T04:45:32;7.70;99.90
6260;DHT22;3163;51.516;4.000;2023-03-03T04:47:57;7.60;99.90
6260;DHT22;3163;51.516;4.000;2023-03-03T04:50:23;7.70;99.90
6260;DHT22;3163;51.516;4.000;2023-03-03T04:52:49;7.60;99.90
6260;DHT22;3163;51.516;4.000;2023-03-03T04:55:15;7.60;99.90
6260;DHT22;3163;51.516;4.000;2023-03-03T04:57:41;7.60;99.90
6260;DHT22;3163;51.516;4.000;2023-03-03T05:00:08;7.60;99.90
6260;DHT22;3163;51.516;4.000;2023-03-03T05:02:34;7.60;99.90
6260;DHT22;3163;51.516;4.000;2023-03-03T05:04:59;7.60;99.90
6260;DHT22;3163;51.516;4.000;2023-03-03T05:07:25;7.50;99.90
6260;DHT22;3163;51.516;4.000;2023-03-03T05:09:50;7.50;99.90
6260;DHT22;3163;51.516;4.000;2023-03-03T05:12:17;7.50;99.90
6260;DHT22;3163;51.516;4.000;2023-03-03T05:14:42;7.60;99.90
6260;DHT22;3163;51.516;4.000;2023-03-03T05:17:08;7.50;99.90
6260;DHT22;3163;51.516;4.000;2023-03-03T05:19:33;7.50;99.90
6260;DHT22;3163;51.516;4.000;2023-03-03T05:22:00;7.60;99.90
6260;DHT22;3163;51.516;4.000;2023-03-03T05:24:26;7.60;99.90
6260;DHT22;3163;51.516;4.000;2023-03-03T05:26:52;7.60;99.90
6260;DHT22;3163;51.516;4.000;2023-03-03T05:29:18;7.70;99.90
6260;DHT22;3163;51.516;4.000;2023-03-03T05:31:43;7.70;99.90
6260;DHT22;3163;51.516;4.000;2023-03-03T05:34:09;7.60;99.90
6260;DHT22;3163;51.516;4.000;2023-03-03T05:36:35;7.60;99.90
6260;DHT22;3163;51.516;4.000;2023-03-03T05:39:00;7.60;99.90
6260;DHT22;3163;51.516;4.000;2023-03-03T05:41:26;7.60;99.90
6260;DHT22;3163;51.516;4.000;2023-03-03T05:43:52;7.60;99.90
6260;DHT22;3163;51.516;4.000;2023-03-03T05:46:17;7.50;99.90
6260;DHT22;3163;51.516;4.000;2023-03-03T05:48:43;7.60;99.90
6260;DHT22;3163;51.516;4.000;2023-03-03T05:51:09;7.50;99.90
6260;DHT22;3163;51.516;4.000;2023-03-03T05:53:35;7.50;99.90
6260;DHT22;3163;51.516;4.000;2023-03-03T05:56:01;7.50;99.90
6260;DHT22;3163;51.516;4.000;2023-03-03T05:58:27;7.50;99.90
6260;DHT22;3163;51.516;4.000;2023-03-03T06:00:53;7.50;99.90
6260;DHT22;3163;51.516;4.000;2023-03-03T06:03:18;7.50;99.90
6260;DHT22;3163;51.516;4.000;2023-03-03T06:05:44;7.50;99.90
6260;DHT22;3163;51.516;4.000;2023-03-03T06:08:09;7.50;99.90
6260;DHT22;3163;51.516;4.000;2023-03-03T06:10:35;7.50;99.90
6260;DHT22;3163;51.516;4.000;2023-03-03T06:13:01;7.40;99.90
6260;DHT22;3163;51.516;4.000;2023-03-03T06:15:26;7.40;99.90
6260;DHT22;3163;51.516;4.000;2023-03-03T06:17:52;7.40;99.90
6260;DHT22;3163;51.516;4.000;2023-03-03T06:20:18;7.50;99.90
6260;DHT22;3163;51.516;4.000;2023-03-03T06:22:43;7.40;99.90
6260;DHT22;3163;51.516;4.000;2023-03-03T06:25:09;7.40;99.90
6260;DHT22;3163;51.516;4.000;2023-03-03T06:27:35;7.40;99.90
6260;DHT22;3163;51.516;4.000;2023-03-03T06:30:01;7.40;99.90
6260;DHT22;3163;51.516;4.000;2023-03-03T06:32:26;7.50;99.90
6260;DHT22;3163;51.516;4.000;2023-03-03T06:34:52;7.50;99.90
6260;DHT22;3163;51.516;4.000;2023-03-03T06:37:18;7.60;99.90
6260;DHT22;3163;51.516;4.000;2023-03-03T06:39:43;7.60;99.90
6260;DHT22;3163;51.516;4.000;2023-03-03T06:42:09;7.60;99.90
6260;DHT22;3163;51.516;4.000;2023-03-03T06:44:35;7.50;99.90
6260;DHT22;3163;51.516;4.000;2023-03-03T06:47:01;7.50;99.90
6260;DHT22;3163;51.516;4.000;2023-03-03T06:49:27;7.50;99.90
6260;DHT22;3163;51.516;4.000;2023-03-03T06:51:53;7.50;99.90
6260;DHT22;3163;51.516;4.000;2023-03-03T06:54:20;7.40;99.90
6260;DHT22;3163;51.516;4.000;2023-03-03T06:56:49;7.50;99.90
6260;DHT22;3163;51.516;4.000;2023-03-03T06:59:19;7.50;99.90
6260;DHT22;3163;51.516;4.000;2023-03-03T07:01:48;7.50;99.90
6260;DHT22;3163;51.516;4.000;2023-03-03T07:06:50;7.60;99.90
6260;DHT22;3163;51.516;4.000;2023-03-03T07:09:27;7.60;99.90
6260;DHT22;3163;51.516;4.000;2023-03-03T07:11:59;7.60;99.90
6260;DHT22;3163;51.516;4.000;2023-03-03T07:14:25;7.60;99.90
6260;DHT22;3163;51.516;4.000;2023-03-03T07:16:57;7.60;99.90
6260;DHT22;3163;51.516;4.000;2023-03-03T07:19:34;7.70;99.90
6260;DHT22;3163;51.516;4.000;2023-03-03T07:22:21;7.70;99.90
6260;DHT22;3163;51.516;4.000;2023-03-03T07:24:51;7.80;99.90
6260;DHT22;3163;51.516;4.000;2023-03-03T07:27:29;7.80;99.90
6260;DHT22;3163;51.516;4.000;2023-03-03T07:32:41;7.90;99.90
6260;DHT22;3163;51.516;4.000;2023-03-03T07:35:35;7.90;99.90
6260;DHT22;3163;51.516;4.000;2023-03-03T07:38:19;8.00;99.90
6260;DHT22;3163;51.516;4.000;2023-03-03T07:40:53;7.90;99.90
6260;DHT22;3163;51.516;4.000;2023-03-03T07:43:33;8.00;99.90
6260;DHT22;3163;51.516;4.000;2023-03-03T07:49:21;7.90;99.90
6260;DHT22;3163;51.516;4.000;2023-03-03T07:51:47;7.90;99.90
6260;DHT22;3163;51.516;4.000;2023-03-03T07:56:50;8.10;99.90
6260;DHT22;3163;51.516;4.000;2023-03-03T07:59:25;8.00;99.90
6260;DHT22;3163;51.516;4.000;2023-03-03T08:01:54;8.00;99.90
6260;DHT22;3163;51.516;4.000;2023-03-03T08:06:59;8.10;99.90
6260;DHT22;3163;51.516;4.000;2023-03-03T08:09:35;8.00;99.90
6260;DHT22;3163;51.516;4.000;2023-03-03T08:12:17;8.00;99.90
6260;DHT22;3163;51.516;4.000;2023-03-03T08:14:44;8.00;99.90
6260;DHT22;3163;51.516;4.000;2023-03-03T08:17:36;8.10;99.90
6260;DHT22;3163;51.516;4.000;2023-03-03T08:20:37;8.10;99.90
6260;DHT22;3163;51.516;4.000;2023-03-03T08:23:03;8.10;99.90
6260;DHT22;3163;51.516;4.000;2023-03-03T08:25:29;8.00;99.90
6260;DHT22;3163;51.516;4.000;2023-03-03T08:27:54;8.20;99.90
6260;DHT22;3163;51.516;4.000;2023-03-03T08:30:20;8.20;99.90
6260;DHT22;3163;51.516;4.000;2023-03-03T08:32:45;8.20;99.90
6260;DHT22;3163;51.516;4.000;2023-03-03T08:35:11;8.30;99.90
6260;DHT22;3163;51.516;4.000;2023-03-03T08:37:36;8.30;99.90
6260;DHT22;3163;51.516;4.000;2023-03-03T08:40:02;8.30;99.90
6260;DHT22;3163;51.516;4.000;2023-03-03T08:42:28;8.40;99.90
6260;DHT22;3163;51.516;4.000;2023-03-03T08:44:54;8.40;99.90
6260;DHT22;3163;51.516;4.000;2023-03-03T08:47:20;8.40;99.90
6260;DHT22;3163;51.516;4.000;2023-03-03T08:49:46;8.50;99.90
6260;DHT22;3163;51.516;4.000;2023-03-03T08:52:11;8.50;99.90
6260;DHT22;3163;51.516;4.000;2023-03-03T08:54:37;8.50;99.90
6260;DHT22;3163;51.516;4.000;2023-03-03T08:57:02;8.30;99.90
6260;DHT22;3163;51.516;4.000;2023-03-03T08:59:28;8.30;99.90
6260;DHT22;3163;51.516;4.000;2023-03-03T09:01:53;8.20;99.90
6260;DHT22;3163;51.516;4.000;2023-03-03T09:04:19;8.30;99.90
6260;DHT22;3163;51.516;4.000;2023-03-03T09:06:45;8.30;99.90
6260;DHT22;3163;51.516;4.000;2023-03-03T09:09:10;8.20;99.90
6260;DHT22;3163;51.516;4.000;2023-03-03T09:11:36;8.20;99.90
6260;DHT22;3163;51.516;4.000;2023-03-03T09:14:06;8.40;99.90
6260;DHT22;3163;51.516;4.000;2023-03-03T09:16:38;8.40;99.90
6260;DHT22;3163;51.516;4.000;2023-03-03T09:21:50;8.30;99.90
6260;DHT22;3163;51.516;4.000;2023-03-03T09:24:26;8.40;99.90
6260;DHT22;3163;51.516;4.000;2023-03-03T09:26:52;8.40;99.90
6260;DHT22;3163;51.516;4.000;2023-03-03T09:29:30;8.40;99.90
6260;DHT22;3163;51.516;4.000;2023-03-03T09:31:56;8.30;99.90
6260;DHT22;3163;51.516;4.000;2023-03-03T09:34:25;8.30;99.90
6260;DHT22;3163;51.516;4.000;2023-03-03T09:36:53;8.30;99.90
6260;DHT22;3163;51.516;4.000;2023-03-03T09:39:26;8.30;99.90
6260;DHT22;3163;51.516;4.000;2023-03-03T09:47:37;8.50;99.90
6260;DHT22;3163;51.516;4.000;2023-03-03T10:04:17;8.40;99.90
6260;DHT22;3163;51.516;4.000;2023-03-03T10:06:50;8.40;99.90
6260;DHT22;3163;51.516;4.000;2023-03-03T10:14:44;8.60;99.90
6260;DHT22;3163;51.516;4.000;2023-03-03T10:20:10;8.70;99.90
6260;DHT22;3163;51.516;4.000;2023-03-03T10:22:55;8.80;99.90
6260;DHT22;3163;51.516;4.000;2023-03-03T10:25:45;8.90;99.90
6260;DHT22;3163;51.516;4.000;2023-03-03T10:30:56;8.90;99.90
6260;DHT22;3163;51.516;4.000;2023-03-03T10:39:56;9.10;99.90
6260;DHT22;3163;51.516;4.000;2023-03-03T10:46:06;9.50;99.90
6260;DHT22;3163;51.516;4.000;2023-03-03T11:06:39;9.80;99.90
6260;DHT22;3163;51.516;4.000;2023-03-03T11:09:23;9.70;99.90
6260;DHT22;3163;51.516;4.000;2023-03-03T11:20:37;9.70;99.90
6260;DHT22;3163;51.516;4.000;2023-03-03T11:26:11;10.00;99.90
6260;DHT22;3163;51.516;4.000;2023-03-03T11:34:20;10.80;99.90
6260;DHT22;3163;51.516;4.000;2023-03-03T11:37:16;11.00;99.90
6260;DHT22;3163;51.516;4.000;2023-03-03T11:39:48;11.10;99.90
6260;DHT22;3163;51.516;4.000;2023-03-03T11:42:25;10.90;99.90
6260;DHT22;3163;51.516;4.000;2023-03-03T11:45:04;11.10;99.90
6260;DHT22;3163;51.516;4.000;2023-03-03T11:47:48;11.10;99.90
6260;DHT22;3163;51.516;4.000;2023-03-03T11:50:25;11.40;99.90
6260;DHT22;3163;51.516;4.000;2023-03-03T11:55:39;11.20;99.90
6260;DHT22;3163;51.516;4.000;2023-03-03T11:58:27;11.40;99.90
6260;DHT22;3163;51.516;4.000;2023-03-03T12:04:08;11.70;99.90
6260;DHT22;3163;51.516;4.000;2023-03-03T12:14:32;11.70;99.90
6260;DHT22;3163;51.516;4.000;2023-03-03T12:17:50;11.60;99.90
6260;DHT22;3163;51.516;4.000;2023-03-03T12:20:02;11.70;99.90
6260;DHT22;3163;51.516;4.000;2023-03-03T12:22:43;11.80;99.90
6260;DHT22;3163;51.516;4.000;2023-03-03T12:28:02;12.00;99.90
6260;DHT22;3163;51.516;4.000;2023-03-03T12:34:02;11.80;99.90
6260;DHT22;3163;51.516;4.000;2023-03-03T12:41:58;12.00;99.90
6260;DHT22;3163;51.516;4.000;2023-03-03T12:47:38;12.20;99.90
6260;DHT22;3163;51.516;4.000;2023-03-03T12:52:59;12.20;99.90
6260;DHT22;3163;51.516;4.000;2023-03-03T12:58:10;12.20;99.90
6260;DHT22;3163;51.516;4.000;2023-03-03T13:04:04;12.30;99.90
6260;DHT22;3163;51.516;4.000;2023-03-03T13:09:36;12.10;99.90
6260;DHT22;3163;51.516;4.000;2023-03-03T13:15:10;12.40;99.90
6260;DHT22;3163;51.516;4.000;2023-03-03T13:23:18;12.60;99.90
6260;DHT22;3163;51.516;4.000;2023-03-03T13:26:05;12.40;99.90
6260;DHT22;3163;51.516;4.000;2023-03-03T13:28:39;12.30;99.90
6260;DHT22;3163;51.516;4.000;2023-03-03T13:31:11;12.40;99.90
6260;DHT22;3163;51.516;4.000;2023-03-03T13:33:40;12.50;99.90
6260;DHT22;3163;51.516;4.000;2023-03-03T13:36:09;12.40;99.90
6260;DHT22;3163;51.516;4.000;2023-03-03T13:38:40;12.40;99.90
6260;DHT22;3163;51.516;4.000;2023-03-03T13:49:40;11.60;99.90
6260;DHT22;3163;51.516;4.000;2023-03-03T13:52:11;11.50;99.90
6260;DHT22;3163;51.516;4.000;2023-03-03T13:57:48;11.90;99.90
6260;DHT22;3163;51.516;4.000;2023-03-03T14:00:42;11.70;99.90
6260;DHT22;3163;51.516;4.000;2023-03-03T14:06:15;12.00;99.90
6260;DHT22;3163;51.516;4.000;2023-03-03T14:16:51;12.00;99.90
6260;DHT22;3163;51.516;4.000;2023-03-03T14:19:24;11.80;99.90
6260;DHT22;3163;51.516;4.000;2023-03-03T14:25:04;11.90;99.90
6260;DHT22;3163;51.516;4.000;2023-03-03T14:33:34;11.40;99.90
6260;DHT22;3163;51.516;4.000;2023-03-03T14:36:02;11.60;99.90
6260;DHT22;3163;51.516;4.000;2023-03-03T14:41:39;11.60;99.90
6260;DHT22;3163;51.516;4.000;2023-03-03T14:44:26;11.70;99.90
6260;DHT22;3163;51.516;4.000;2023-03-03T14:49:45;11.70;99.90
6260;DHT22;3163;51.516;4.000;2023-03-03T14:54:54;11.20;99.90
6260;DHT22;3163;51.516;4.000;2023-03-03T14:57:41;11.20;99.90
6260;DHT22;3163;51.516;4.000;2023-03-03T15:07:48;11.00;99.90
6260;DHT22;3163;51.516;4.000;2023-03-03T15:12:52;10.90;99.90
6260;DHT22;3163;51.516;4.000;2023-03-03T15:15:21;10.80;99.90
6260;DHT22;3163;51.516;4.000;2023-03-03T15:17:57;10.70;99.90
6260;DHT22;3163;51.516;4.000;2023-03-03T15:20:44;10.70;99.90
6260;DHT22;3163;51.516;4.000;2023-03-03T15:28:38;10.90;99.90
6260;DHT22;3163;51.516;4.000;2023-03-03T15:34:20;10.70;99.90
6260;DHT22;3163;51.516;4.000;2023-03-03T15:36:59;10.70;99.90
6260;DHT22;3163;51.516;4.000;2023-03-03T15:39:48;10.70;99.90
6260;DHT22;3163;51.516;4.000;2023-03-03T15:42:41;10.70;99.90
6260;DHT22;3163;51.516;4.000;2023-03-03T15:45:28;10.70;99.90
6260;DHT22;3163;51.516;4.000;2023-03-03T15:50:49;10.50;99.90
6260;DHT22;3163;51.516;4.000;2023-03-03T15:56:25;10.70;99.90
6260;DHT22;3163;51.516;4.000;2023-03-03T16:02:44;10.60;99.90
6260;DHT22;3163;51.516;4.000;2023-03-03T16:05:12;10.50;99.90
6260;DHT22;3163;51.516;4.000;2023-03-03T16:20:23;10.40;99.90
6260;DHT22;3163;51.516;4.000;2023-03-03T16:23:03;10.50;99.90
6260;DHT22;3163;51.516;4.000;2023-03-03T16:38:35;10.30;99.90
6260;DHT22;3163;51.516;4.000;2023-03-03T16:41:04;10.40;99.90
6260;DHT22;3163;51.516;4.000;2023-03-03T16:46:30;8.70;99.90
6260;DHT22;3163;51.516;4.000;2023-03-03T19:14:39;9.20;99.90
6260;DHT22;3163;51.516;4.000;2023-03-03T19:23:11;9.10;99.90
6260;DHT22;3163;51.516;4.000;2023-03-03T19:25:38;9.20;99.90
6260;DHT22;3163;51.516;4.000;2023-03-03T19:30:55;9.20;99.90
6260;DHT22;3163;51.516;4.000;2023-03-03T19:43:51;9.00;99.90
6260;DHT22;3163;51.516;4.000;2023-03-03T19:46:34;9.10;99.90
6260;DHT22;3163;51.516;4.000;2023-03-03T19:49:05;9.00;99.90
6260;DHT22;3163;51.516;4.000;2023-03-03T19:54:23;8.90;99.90
6260;DHT22;3163;51.516;4.000;2023-03-03T20:07:22;8.90;99.90
6260;DHT22;3163;51.516;4.000;2023-03-03T20:10:22;8.90;99.90
6260;DHT22;3163;51.516;4.000;2023-03-03T20:22:26;8.90;99.90
6260;DHT22;3163;51.516;4.000;2023-03-03T20:25:18;8.90;99.90
6260;DHT22;3163;51.516;4.000;2023-03-03T20:28:02;8.90;99.90
6260;DHT22;3163;51.516;4.000;2023-03-03T20:30:47;8.90;99.90
6260;DHT22;3163;51.516;4.000;2023-03-03T20:46:54;8.70;99.90
6260;DHT22;3163;51.516;4.000;2023-03-03T20:52:45;8.80;99.90
6260;DHT22;3163;51.516;4.000;2023-03-03T20:55:42;8.80;99.90
6260;DHT22;3163;51.516;4.000;2023-03-03T21:01:21;8.80;99.90
6260;DHT22;3163;51.516;4.000;2023-03-03T21:03:50;8.70;99.90
6260;DHT22;3163;51.516;4.000;2023-03-03T21:06:18;8.70;99.90
6260;DHT22;3163;51.516;4.000;2023-03-03T21:08:52;8.70;99.90
6260;DHT22;3163;51.516;4.000;2023-03-03T21:11:23;8.70;99.90
6260;DHT22;3163;51.516;4.000;2023-03-03T21:13:51;8.70;99.90
6260;DHT22;3163;51.516;4.000;2023-03-03T21:19:03;8.70;99.90
6260;DHT22;3163;51.516;4.000;2023-03-03T21:24:03;8.70;99.90
6260;DHT22;3163;51.516;4.000;2023-03-03T21:29:34;8.70;99.90
6260;DHT22;3163;51.516;4.000;2023-03-03T21:32:05;8.70;99.90
6260;DHT22;3163;51.516;4.000;2023-03-03T21:37:02;8.70;99.90
6260;DHT22;3163;51.516;4.000;2023-03-03T21:39:34;8.70;99.90
6260;DHT22;3163;51.516;4.000;2023-03-03T21:42:05;8.70;99.90
6260;DHT22;3163;51.516;4.000;2023-03-03T21:44:47;8.70;99.90
6260;DHT22;3163;51.516;4.000;2023-03-03T21:47:17;8.70;99.90
6260;DHT22;3163;51.516;4.000;2023-03-03T21:49:45;8.70;99.90
6260;DHT22;3163;51.516;4.000;2023-03-03T21:52:13;8.70;99.90
6260;DHT22;3163;51.516;4.000;2023-03-03T21:54:41;8.70;99.90
6260;DHT22;3163;51.516;4.000;2023-03-03T21:57:07;8.70;99.90
6260;DHT22;3163;51.516;4.000;2023-03-03T21:59:33;8.70;99.90
6260;DHT22;3163;51.516;4.000;2023-03-03T22:01:58;8.70;99.90
6260;DHT22;3163;51.516;4.000;2023-03-03T22:04:24;8.70;99.90
6260;DHT22;3163;51.516;4.000;2023-03-03T22:06:50;8.70;99.90
6260;DHT22;3163;51.516;4.000;2023-03-03T22:09:18;8.70;99.90
6260;DHT22;3163;51.516;4.000;2023-03-03T22:11:43;8.70;99.90
6260;DHT22;3163;51.516;4.000;2023-03-03T22:14:10;8.70;99.90
6260;DHT22;3163;51.516;4.000;2023-03-03T22:16:36;8.60;99.90
6260;DHT22;3163;51.516;4.000;2023-03-03T22:19:02;8.60;99.90
6260;DHT22;3163;51.516;4.000;2023-03-03T22:21:29;8.60;99.90
6260;DHT22;3163;51.516;4.000;2023-03-03T22:23:55;8.60;99.90
6260;DHT22;3163;51.516;4.000;2023-03-03T22:26:21;8.60;99.90
6260;DHT22;3163;51.516;4.000;2023-03-03T22:28:47;8.60;99.90
6260;DHT22;3163;51.516;4.000;2023-03-03T22:31:14;8.60;99.90
6260;DHT22;3163;51.516;4.000;2023-03-03T22:43:46;8.60;99.90
6260;DHT22;3163;51.516;4.000;2023-03-03T22:46:12;8.60;99.90
6260;DHT22;3163;51.516;4.000;2023-03-03T22:48:38;8.60;99.90
6260;DHT22;3163;51.516;4.000;2023-03-03T22:51:04;8.60;99.90
6260;DHT22;3163;51.516;4.000;2023-03-03T22:53:30;8.60;99.90
6260;DHT22;3163;51.516;4.000;2023-03-03T22:55:55;8.60;99.90
6260;DHT22;3163;51.516;4.000;2023-03-03T22:58:21;8.60;99.90
6260;DHT22;3163;51.516;4.000;2023-03-03T23:00:50;8.60;99.90
6260;DHT22;3163;51.516;4.000;2023-03-03T23:03:16;8.60;99.90
6260;DHT22;3163;51.516;4.000;2023-03-03T23:05:42;8.70;99.90
6260;DHT22;3163;51.516;4.000;2023-03-03T23:08:11;8.70;99.90
6260;DHT22;3163;51.516;4.000;2023-03-03T23:10:38;8.70;99.90
6260;DHT22;3163;51.516;4.000;2023-03-03T23:13:03;8.70;99.90
6260;DHT22;3163;51.516;4.000;2023-03-03T23:15:29;8.70;99.90
6260;DHT22;3163;51.516;4.000;2023-03-03T23:17:55;8.70;99.90
6260;DHT22;3163;51.516;4.000;2023-03-03T23:20:23;8.60;99.90
6260;DHT22;3163;51.516;4.000;2023-03-03T23:22:50;8.60;99.90
6260;DHT22;3163;51.516;4.000;2023-03-03T23:25:15;8.60;99.90
6260;DHT22;3163;51.516;4.000;2023-03-03T23:27:42;8.60;99.90
6260;DHT22;3163;51.516;4.000;2023-03-03T23:30:09;8.60;99.90
6260;DHT22;3163;51.516;4.000;2023-03-03T23:32:35;8.60;99.90
6260;DHT22;3163;51.516;4.000;2023-03-03T23:35:00;8.60;99.90
6260;DHT22;3163;51.516;4.000;2023-03-03T23:37:26;8.60;99.90
6260;DHT22;3163;51.516;4.000;2023-03-03T23:39:52;8.60;99.90
6260;DHT22;3163;51.516;4.000;2023-03-03T23:42:17;8.60;99.90
6260;DHT22;3163;51.516;4.000;2023-03-03T23:44:43;8.60;99.90
6260;DHT22;3163;51.516;4.000;2023-03-03T23:47:09;8.60;99.90
6260;DHT22;3163;51.516;4.000;2023-03-03T23:49:35;8.60;99.90
6260;DHT22;3163;51.516;4.000;2023-03-03T23:52:01;8.60;99.90
6260;DHT22;3163;51.516;4.000;2023-03-03T23:54:27;8.60;99.90
6260;DHT22;3163;51.516;4.000;2023-03-03T23:56:53;8.60;99.90
6260;DHT22;3163;51.516;4.000;2023-03-03T23:59:19;8.60;99.90
